Αρχική σελίδα
METAR-TAF:

METAR-TAF

Αεροδρόμια :

Grass Valley, Καλιφόρνια, Ηνωμένες Πολιτείες Αμερικής

γεωγραφικό πλάτος: 39-13-26N, γεωγραφικό μήκος: 121-00-11W, υψόμετρο: 961 μ

Παρών καιρός

Η αναφορά έγινε 17 λεπτά πριν, στις 00:00 UTC
Άνεμος 5 kt από Β/BΔ
Θερμοκρασία 30°C
Υγρασία 35%
Πίεση 1021 hPa
Ορατότητα: 16.1 χλμ
Καθαρός ουρανός

METAR: KGOO 230000Z AUTO 33005KT 10SM CLR 30/13 A3015 RMK AO1

Χρόνος: 17:17 (00:17 UTC)


TAF: λείπει

Μετεωρολογικές αναφορές και προγνώσεις για περισσότερα από 4000 αεροδρόμια (δελτία METAR και TAF).

Οι διαθέσιμοι σταθμοί απεικονίζονται στο χάρτη με κίτρινες και κόκκινες κουκκίδες.

Μετακινήστε το ποντίκι πάνω από τις κουκκίδες για να δείτε το όνομα του σταθμού.

Στη συνέχεια, κάντε κλικ για να δείτε τις μετεωρολογικές αναφορές και τις προγνώσεις καιρού.

Για να αλλάξετε το χάρτη: κάντε κλικ στα πράσινα κουμπιά με τον μαύρο σταυρό για να ζουμάρετε, στο πράσινο κουμπί με την παύλα για να αφαιρέσετε το ζουμ ή στα πράσινα βέλη για να αντιπαραβάλλετε χάρτες.


METAR-TAF: